Meteo Giornale » Osservazioni meteo Cile » Calama-El Loa
ore: 16:00 - Osservazioni Meteo Calama-El Loa
Lat. 22° 30' S Lon. 68° 54' W Alt. 2312 metri s.l.m.
21 °C
Sereno
Temp. 24 Ore
3 °C
22 °C
Ovest
31.5 Km/h
Dew point -14 °C
Umidità 8 %
Visibilità 10 Km
Il sole sorge alle ore 06:46
Il sole tramonta alle ore 18:25
| Data e Ora | Cielo e Fenomeni | T °C | DP °C | Um. % | Pres. hPa | Vis. km | Vento km/h | |
|---|---|---|---|---|---|---|---|---|
| Oggi h: 16:00 | Sereno | 21 | -14 | 8 | 1026 | 10 | O 31.5 | |
| Oggi h: 15:00 | Sereno | 22 | -14 | 7 | 1027 | 10 | O 35.2 | |
| Oggi h: 14:00 | Sereno | 22 | -16 | 6 | 1027 | 10 | O/NO 33.3 | |
| Oggi h: 13:00 | Sereno | 22 | -14 | 7 | 1028 | 10 | O 33.3 | |
| Oggi h: 12:00 | Sereno | 20 | -13 | 9 | 1029 | 10 | O 27.8 | |
| Oggi h: 11:00 | Sereno | 18 | -9 | 14 | 1029 | 10 | N 5.5 | |
| Oggi h: 10:00 | Sereno | 16 | -7 | 19 | 1029 | 10 | N 3.7 | |
| Oggi h: 09:00 | Sereno | 15 | -9 | 18 | 1029 | 10 | N 3.7 | |
| Oggi h: 08:00 | Sereno | 8 | -10 | 26 | 1028 | 10 | E 9.3 | |
| Oggi h: 07:00 | Sereno | 3 | -12 | 32 | 1027 | 10 | SE 9.3 | |
| Oggi h: 06:00 | Sereno | 4 | -12 | 29 | 1027 | 10 | SE 9.3 | |
| Oggi h: 05:00 | Sereno | 4 | -12 | 29 | 1027 | 10 | E/SE 14.8 | |
| Oggi h: 04:00 | Sereno | 5 | -12 | 27 | 1027 | 10 | S/SE 13 | |
| Oggi h: 03:00 | Sereno | 6 | -14 | 22 | 1027 | 10 | SE 24 | |
| Oggi h: 02:00 | Sereno | 6 | -15 | 20 | 1027 | 10 | E/SE 22.2 | |
| Oggi h: 01:00 | Sereno | 9 | -14 | 18 | 1027 | 10 | SE 14.8 | |
| Oggi h: 00:00 | Sereno | 5 | -18 | 16 | 1028 | 10 | E 24 | |
| Ieri h: 23:00 | Sereno | 7 | -18 | 14 | 1028 | 10 | S/SO 7.4 | |
| Ieri h: 22:00 | Sereno | 12 | -18 | 10 | 1028 | 10 | N 5.5 | |
| Ieri h: 21:00 | Sereno | 10 | -19 | 11 | 1028 | 10 | SO 11.1 | |
| Ieri h: 20:00 | Sereno | 13 | -14 | 13 | 1027 | 10 | O 22.2 | |
| Ieri h: 19:00 | Sereno | 16 | -14 | 11 | 1026 | 10 | O 29.6 | |
| Ieri h: 18:00 | Sereno | 18 | -9 | 14 | 1026 | 10 | O/NO 42.6 | |
| Ieri h: 17:00 | Sereno | 20 | -12 | 10 | 1025 | 10 | O/NO 42.6 | |



